sensor_id;sensor_type;location;lat;lon;timestamp;P1;durP1;ratioP1;P2;durP2;ratioP2
77948;SDS011;67146;51.236;-0.336;2023-04-23T00:00:31;8.20;;;1.00;;
77948;SDS011;67146;51.236;-0.336;2023-04-23T00:02:57;12.93;;;2.80;;
77948;SDS011;67146;51.236;-0.336;2023-04-23T00:05:25;9.82;;;1.20;;
77948;SDS011;67146;51.236;-0.336;2023-04-23T00:07:52;6.03;;;0.98;;
77948;SDS011;67146;51.236;-0.336;2023-04-23T00:10:18;7.43;;;1.35;;
77948;SDS011;67146;51.236;-0.336;2023-04-23T00:12:43;8.63;;;0.85;;
77948;SDS011;67146;51.236;-0.336;2023-04-23T00:15:10;9.27;;;0.80;;
77948;SDS011;67146;51.236;-0.336;2023-04-23T00:17:36;7.93;;;1.90;;
77948;SDS011;67146;51.236;-0.336;2023-04-23T00:20:01;8.90;;;0.80;;
77948;SDS011;67146;51.236;-0.336;2023-04-23T00:22:26;5.68;;;0.60;;
77948;SDS011;67146;51.236;-0.336;2023-04-23T00:24:52;9.40;;;1.27;;
77948;SDS011;67146;51.236;-0.336;2023-04-23T00:27:17;9.80;;;1.23;;
77948;SDS011;67146;51.236;-0.336;2023-04-23T00:29:45;9.60;;;1.27;;
77948;SDS011;67146;51.236;-0.336;2023-04-23T00:32:10;8.70;;;1.27;;
77948;SDS011;67146;51.236;-0.336;2023-04-23T00:34:35;7.40;;;1.05;;
77948;SDS011;67146;51.236;-0.336;2023-04-23T00:37:01;12.20;;;1.00;;
77948;SDS011;67146;51.236;-0.336;2023-04-23T00:39:30;7.75;;;1.65;;
77948;SDS011;67146;51.236;-0.336;2023-04-23T00:41:55;8.90;;;0.90;;
77948;SDS011;67146;51.236;-0.336;2023-04-23T00:44:20;8.32;;;1.20;;
77948;SDS011;67146;51.236;-0.336;2023-04-23T00:46:46;13.88;;;1.35;;
77948;SDS011;67146;51.236;-0.336;2023-04-23T00:49:12;7.60;;;0.63;;
77948;SDS011;67146;51.236;-0.336;2023-04-23T00:51:38;9.75;;;0.85;;
77948;SDS011;67146;51.236;-0.336;2023-04-23T00:54:03;12.73;;;1.10;;
77948;SDS011;67146;51.236;-0.336;2023-04-23T00:56:29;12.52;;;1.58;;
77948;SDS011;67146;51.236;-0.336;2023-04-23T00:58:54;10.93;;;1.55;;
77948;SDS011;67146;51.236;-0.336;2023-04-23T01:01:20;14.40;;;2.30;;
77948;SDS011;67146;51.236;-0.336;2023-04-23T01:03:50;12.82;;;2.08;;
77948;SDS011;67146;51.236;-0.336;2023-04-23T01:06:16;8.88;;;1.25;;
77948;SDS011;67146;51.236;-0.336;2023-04-23T01:08:43;8.95;;;1.08;;
77948;SDS011;67146;51.236;-0.336;2023-04-23T01:11:09;8.80;;;1.08;;
77948;SDS011;67146;51.236;-0.336;2023-04-23T01:13:35;5.55;;;0.50;;
77948;SDS011;67146;51.236;-0.336;2023-04-23T01:16:00;5.93;;;0.40;;
77948;SDS011;67146;51.236;-0.336;2023-04-23T01:18:26;5.43;;;1.00;;
77948;SDS011;67146;51.236;-0.336;2023-04-23T01:20:52;5.18;;;0.32;;
77948;SDS011;67146;51.236;-0.336;2023-04-23T01:23:17;4.40;;;0.40;;
77948;SDS011;67146;51.236;-0.336;2023-04-23T01:25:43;2.88;;;0.45;;
77948;SDS011;67146;51.236;-0.336;2023-04-23T01:28:08;5.65;;;0.30;;
77948;SDS011;67146;51.236;-0.336;2023-04-23T01:30:34;6.15;;;0.50;;
77948;SDS011;67146;51.236;-0.336;2023-04-23T01:33:00;7.40;;;1.08;;
77948;SDS011;67146;51.236;-0.336;2023-04-23T01:35:26;12.23;;;1.38;;
77948;SDS011;67146;51.236;-0.336;2023-04-23T01:37:52;5.80;;;0.70;;
77948;SDS011;67146;51.236;-0.336;2023-04-23T01:40:18;4.30;;;0.60;;
77948;SDS011;67146;51.236;-0.336;2023-04-23T01:42:44;8.90;;;1.60;;
77948;SDS011;67146;51.236;-0.336;2023-04-23T01:45:10;8.07;;;0.88;;
77948;SDS011;67146;51.236;-0.336;2023-04-23T01:47:35;8.65;;;1.13;;
77948;SDS011;67146;51.236;-0.336;2023-04-23T01:50:01;9.50;;;1.25;;
77948;SDS011;67146;51.236;-0.336;2023-04-23T01:52:28;6.00;;;0.85;;
77948;SDS011;67146;51.236;-0.336;2023-04-23T01:54:53;11.43;;;1.07;;
77948;SDS011;67146;51.236;-0.336;2023-04-23T01:57:19;9.05;;;1.90;;
77948;SDS011;67146;51.236;-0.336;2023-04-23T02:02:13;11.25;;;1.13;;
77948;SDS011;67146;51.236;-0.336;2023-04-23T02:04:39;8.07;;;1.13;;
77948;SDS011;67146;51.236;-0.336;2023-04-23T02:07:05;8.20;;;0.90;;
77948;SDS011;67146;51.236;-0.336;2023-04-23T02:09:30;8.87;;;0.97;;
77948;SDS011;67146;51.236;-0.336;2023-04-23T02:11:55;9.70;;;1.00;;
77948;SDS011;67146;51.236;-0.336;2023-04-23T02:14:21;5.28;;;0.80;;
77948;SDS011;67146;51.236;-0.336;2023-04-23T02:16:47;10.70;;;0.60;;
77948;SDS011;67146;51.236;-0.336;2023-04-23T02:19:12;5.35;;;0.65;;
77948;SDS011;67146;51.236;-0.336;2023-04-23T02:21:39;12.93;;;1.17;;
77948;SDS011;67146;51.236;-0.336;2023-04-23T02:24:05;9.97;;;1.73;;
77948;SDS011;67146;51.236;-0.336;2023-04-23T02:26:31;6.30;;;0.95;;
77948;SDS011;67146;51.236;-0.336;2023-04-23T02:28:56;6.78;;;0.60;;
77948;SDS011;67146;51.236;-0.336;2023-04-23T02:31:22;8.27;;;0.90;;
77948;SDS011;67146;51.236;-0.336;2023-04-23T02:33:47;13.45;;;0.88;;
77948;SDS011;67146;51.236;-0.336;2023-04-23T02:36:12;9.18;;;1.05;;
77948;SDS011;67146;51.236;-0.336;2023-04-23T02:38:38;12.45;;;1.10;;
77948;SDS011;67146;51.236;-0.336;2023-04-23T02:41:06;7.30;;;1.13;;
77948;SDS011;67146;51.236;-0.336;2023-04-23T02:43:31;8.30;;;1.83;;
77948;SDS011;67146;51.236;-0.336;2023-04-23T02:45:57;9.48;;;0.88;;
77948;SDS011;67146;51.236;-0.336;2023-04-23T02:48:23;8.73;;;1.33;;
77948;SDS011;67146;51.236;-0.336;2023-04-23T02:50:50;9.13;;;2.38;;
77948;SDS011;67146;51.236;-0.336;2023-04-23T02:53:15;11.30;;;1.10;;
77948;SDS011;67146;51.236;-0.336;2023-04-23T02:55:40;10.02;;;1.00;;
77948;SDS011;67146;51.236;-0.336;2023-04-23T02:58:06;9.57;;;1.00;;
77948;SDS011;67146;51.236;-0.336;2023-04-23T03:00:31;12.63;;;1.15;;
77948;SDS011;67146;51.236;-0.336;2023-04-23T03:02:56;10.77;;;1.20;;
77948;SDS011;67146;51.236;-0.336;2023-04-23T03:05:22;10.20;;;1.50;;
77948;SDS011;67146;51.236;-0.336;2023-04-23T03:07:47;14.97;;;1.60;;
77948;SDS011;67146;51.236;-0.336;2023-04-23T03:10:12;10.87;;;1.20;;
77948;SDS011;67146;51.236;-0.336;2023-04-23T03:12:38;11.93;;;1.03;;
77948;SDS011;67146;51.236;-0.336;2023-04-23T03:15:03;10.27;;;1.08;;
77948;SDS011;67146;51.236;-0.336;2023-04-23T03:17:29;7.65;;;1.20;;
77948;SDS011;67146;51.236;-0.336;2023-04-23T03:19:54;12.50;;;0.90;;
77948;SDS011;67146;51.236;-0.336;2023-04-23T03:22:19;8.80;;;0.95;;
77948;SDS011;67146;51.236;-0.336;2023-04-23T03:24:45;11.33;;;1.17;;
77948;SDS011;67146;51.236;-0.336;2023-04-23T03:27:10;8.10;;;1.57;;
77948;SDS011;67146;51.236;-0.336;2023-04-23T03:29:35;10.20;;;1.13;;
77948;SDS011;67146;51.236;-0.336;2023-04-23T03:32:01;8.03;;;1.00;;
77948;SDS011;67146;51.236;-0.336;2023-04-23T03:34:26;6.85;;;1.10;;
77948;SDS011;67146;51.236;-0.336;2023-04-23T03:36:52;9.13;;;1.27;;
77948;SDS011;67146;51.236;-0.336;2023-04-23T03:39:17;11.77;;;1.00;;
77948;SDS011;67146;51.236;-0.336;2023-04-23T03:41:42;6.03;;;0.80;;
77948;SDS011;67146;51.236;-0.336;2023-04-23T03:44:08;11.82;;;1.23;;
77948;SDS011;67146;51.236;-0.336;2023-04-23T03:46:33;9.63;;;1.25;;
77948;SDS011;67146;51.236;-0.336;2023-04-23T03:48:59;13.23;;;2.10;;
77948;SDS011;67146;51.236;-0.336;2023-04-23T03:51:25;9.35;;;1.00;;
77948;SDS011;67146;51.236;-0.336;2023-04-23T03:53:51;14.18;;;1.10;;
77948;SDS011;67146;51.236;-0.336;2023-04-23T03:56:16;10.52;;;0.90;;
77948;SDS011;67146;51.236;-0.336;2023-04-23T03:58:42;9.57;;;1.13;;
77948;SDS011;67146;51.236;-0.336;2023-04-23T04:01:07;8.30;;;1.97;;
77948;SDS011;67146;51.236;-0.336;2023-04-23T04:03:32;14.33;;;1.30;;
77948;SDS011;67146;51.236;-0.336;2023-04-23T04:05:58;6.50;;;1.45;;
77948;SDS011;67146;51.236;-0.336;2023-04-23T04:08:23;8.93;;;1.00;;
77948;SDS011;67146;51.236;-0.336;2023-04-23T04:10:50;10.95;;;1.10;;
77948;SDS011;67146;51.236;-0.336;2023-04-23T04:13:18;7.13;;;1.20;;
77948;SDS011;67146;51.236;-0.336;2023-04-23T04:15:44;9.30;;;1.17;;
77948;SDS011;67146;51.236;-0.336;2023-04-23T04:18:09;9.45;;;1.15;;
77948;SDS011;67146;51.236;-0.336;2023-04-23T04:20:35;9.98;;;1.40;;
77948;SDS011;67146;51.236;-0.336;2023-04-23T04:23:00;7.78;;;1.42;;
77948;SDS011;67146;51.236;-0.336;2023-04-23T04:25:25;9.93;;;1.47;;
77948;SDS011;67146;51.236;-0.336;2023-04-23T04:27:52;9.80;;;1.33;;
77948;SDS011;67146;51.236;-0.336;2023-04-23T04:30:18;10.80;;;1.35;;
77948;SDS011;67146;51.236;-0.336;2023-04-23T04:32:43;12.57;;;1.52;;
77948;SDS011;67146;51.236;-0.336;2023-04-23T04:35:09;9.73;;;1.40;;
77948;SDS011;67146;51.236;-0.336;2023-04-23T04:37:36;9.70;;;1.48;;
77948;SDS011;67146;51.236;-0.336;2023-04-23T04:40:02;11.00;;;1.15;;
77948;SDS011;67146;51.236;-0.336;2023-04-23T04:42:29;7.10;;;1.33;;
77948;SDS011;67146;51.236;-0.336;2023-04-23T04:44:55;15.50;;;2.45;;
77948;SDS011;67146;51.236;-0.336;2023-04-23T04:47:23;6.90;;;1.10;;
77948;SDS011;67146;51.236;-0.336;2023-04-23T04:49:48;6.97;;;1.20;;
77948;SDS011;67146;51.236;-0.336;2023-04-23T04:52:14;11.98;;;1.20;;
77948;SDS011;67146;51.236;-0.336;2023-04-23T04:54:39;9.00;;;1.33;;
77948;SDS011;67146;51.236;-0.336;2023-04-23T04:57:05;8.82;;;1.00;;
77948;SDS011;67146;51.236;-0.336;2023-04-23T04:59:30;8.63;;;0.63;;
77948;SDS011;67146;51.236;-0.336;2023-04-23T05:01:56;13.00;;;1.53;;
77948;SDS011;67146;51.236;-0.336;2023-04-23T05:04:21;7.43;;;1.10;;
77948;SDS011;67146;51.236;-0.336;2023-04-23T05:06:46;7.07;;;1.07;;
77948;SDS011;67146;51.236;-0.336;2023-04-23T05:09:12;7.43;;;1.90;;
77948;SDS011;67146;51.236;-0.336;2023-04-23T05:11:37;5.93;;;0.98;;
77948;SDS011;67146;51.236;-0.336;2023-04-23T05:14:03;7.60;;;1.02;;
77948;SDS011;67146;51.236;-0.336;2023-04-23T05:16:28;9.70;;;1.10;;
77948;SDS011;67146;51.236;-0.336;2023-04-23T05:18:54;9.02;;;0.90;;
77948;SDS011;67146;51.236;-0.336;2023-04-23T05:21:20;9.10;;;1.03;;
77948;SDS011;67146;51.236;-0.336;2023-04-23T05:23:45;8.68;;;0.80;;
77948;SDS011;67146;51.236;-0.336;2023-04-23T05:26:11;8.50;;;1.10;;
77948;SDS011;67146;51.236;-0.336;2023-04-23T05:28:36;7.20;;;0.80;;
77948;SDS011;67146;51.236;-0.336;2023-04-23T05:31:02;7.38;;;0.88;;
77948;SDS011;67146;51.236;-0.336;2023-04-23T05:33:27;9.32;;;1.02;;
77948;SDS011;67146;51.236;-0.336;2023-04-23T05:35:53;7.22;;;1.50;;
77948;SDS011;67146;51.236;-0.336;2023-04-23T05:38:19;6.72;;;1.10;;
77948;SDS011;67146;51.236;-0.336;2023-04-23T05:40:44;5.45;;;0.73;;
77948;SDS011;67146;51.236;-0.336;2023-04-23T05:43:09;3.70;;;0.73;;
77948;SDS011;67146;51.236;-0.336;2023-04-23T05:45:35;7.10;;;0.80;;
77948;SDS011;67146;51.236;-0.336;2023-04-23T05:48:00;7.57;;;1.10;;
77948;SDS011;67146;51.236;-0.336;2023-04-23T05:50:26;3.73;;;0.80;;
77948;SDS011;67146;51.236;-0.336;2023-04-23T05:52:51;7.50;;;0.80;;
77948;SDS011;67146;51.236;-0.336;2023-04-23T05:55:18;6.68;;;0.57;;
77948;SDS011;67146;51.236;-0.336;2023-04-23T05:57:44;6.78;;;0.63;;
77948;SDS011;67146;51.236;-0.336;2023-04-23T06:00:10;5.38;;;0.65;;
77948;SDS011;67146;51.236;-0.336;2023-04-23T06:02:36;8.30;;;1.83;;
77948;SDS011;67146;51.236;-0.336;2023-04-23T06:05:02;6.75;;;1.17;;
77948;SDS011;67146;51.236;-0.336;2023-04-23T06:07:28;8.90;;;0.90;;
77948;SDS011;67146;51.236;-0.336;2023-04-23T06:09:54;8.90;;;1.00;;
77948;SDS011;67146;51.236;-0.336;2023-04-23T06:12:19;7.73;;;0.87;;
77948;SDS011;67146;51.236;-0.336;2023-04-23T06:14:44;6.40;;;0.60;;
77948;SDS011;67146;51.236;-0.336;2023-04-23T06:17:10;5.70;;;1.10;;
77948;SDS011;67146;51.236;-0.336;2023-04-23T06:19:35;6.17;;;0.53;;
77948;SDS011;67146;51.236;-0.336;2023-04-23T06:22:00;5.70;;;0.63;;
77948;SDS011;67146;51.236;-0.336;2023-04-23T06:24:26;4.17;;;0.70;;
77948;SDS011;67146;51.236;-0.336;2023-04-23T06:26:51;5.13;;;1.07;;
77948;SDS011;67146;51.236;-0.336;2023-04-23T06:29:16;5.30;;;0.63;;
77948;SDS011;67146;51.236;-0.336;2023-04-23T06:31:42;5.78;;;0.60;;
77948;SDS011;67146;51.236;-0.336;2023-04-23T06:34:07;8.13;;;1.77;;
77948;SDS011;67146;51.236;-0.336;2023-04-23T06:36:32;5.78;;;0.90;;
77948;SDS011;67146;51.236;-0.336;2023-04-23T06:38:58;6.00;;;0.50;;
77948;SDS011;67146;51.236;-0.336;2023-04-23T06:41:23;4.63;;;0.50;;
77948;SDS011;67146;51.236;-0.336;2023-04-23T06:43:49;6.90;;;0.40;;
77948;SDS011;67146;51.236;-0.336;2023-04-23T06:46:14;5.45;;;0.80;;
77948;SDS011;67146;51.236;-0.336;2023-04-23T06:48:39;4.10;;;0.80;;
77948;SDS011;67146;51.236;-0.336;2023-04-23T06:51:05;3.77;;;0.80;;
77948;SDS011;67146;51.236;-0.336;2023-04-23T06:53:31;4.82;;;0.65;;
77948;SDS011;67146;51.236;-0.336;2023-04-23T06:55:57;9.38;;;1.00;;
77948;SDS011;67146;51.236;-0.336;2023-04-23T06:58:23;5.18;;;1.35;;
77948;SDS011;67146;51.236;-0.336;2023-04-23T07:00:55;2.55;;;0.32;;
77948;SDS011;67146;51.236;-0.336;2023-04-23T07:03:20;7.35;;;0.68;;
77948;SDS011;67146;51.236;-0.336;2023-04-23T07:05:46;3.80;;;0.70;;
77948;SDS011;67146;51.236;-0.336;2023-04-23T07:08:11;5.27;;;0.93;;
77948;SDS011;67146;51.236;-0.336;2023-04-23T07:10:37;3.67;;;0.52;;
77948;SDS011;67146;51.236;-0.336;2023-04-23T07:13:02;5.00;;;1.15;;
77948;SDS011;67146;51.236;-0.336;2023-04-23T07:15:27;5.67;;;1.00;;
77948;SDS011;67146;51.236;-0.336;2023-04-23T07:17:53;4.67;;;0.73;;
77948;SDS011;67146;51.236;-0.336;2023-04-23T07:20:18;4.10;;;0.67;;
77948;SDS011;67146;51.236;-0.336;2023-04-23T07:22:44;6.97;;;1.10;;
77948;SDS011;67146;51.236;-0.336;2023-04-23T07:25:11;4.75;;;0.60;;
77948;SDS011;67146;51.236;-0.336;2023-04-23T07:27:36;8.33;;;0.60;;
77948;SDS011;67146;51.236;-0.336;2023-04-23T07:30:02;4.10;;;0.75;;
77948;SDS011;67146;51.236;-0.336;2023-04-23T07:32:27;3.85;;;0.60;;
77948;SDS011;67146;51.236;-0.336;2023-04-23T07:34:53;5.28;;;0.70;;
77948;SDS011;67146;51.236;-0.336;2023-04-23T07:37:20;5.13;;;0.60;;
77948;SDS011;67146;51.236;-0.336;2023-04-23T07:39:46;8.15;;;1.60;;
77948;SDS011;67146;51.236;-0.336;2023-04-23T07:42:11;6.30;;;1.13;;
77948;SDS011;67146;51.236;-0.336;2023-04-23T07:44:37;3.58;;;0.50;;
77948;SDS011;67146;51.236;-0.336;2023-04-23T07:47:02;5.35;;;0.50;;
77948;SDS011;67146;51.236;-0.336;2023-04-23T07:49:28;5.43;;;0.90;;
77948;SDS011;67146;51.236;-0.336;2023-04-23T07:51:53;4.40;;;0.50;;
77948;SDS011;67146;51.236;-0.336;2023-04-23T07:54:18;4.80;;;0.40;;
77948;SDS011;67146;51.236;-0.336;2023-04-23T07:56:44;5.75;;;0.85;;
77948;SDS011;67146;51.236;-0.336;2023-04-23T07:59:09;5.27;;;0.60;;
77948;SDS011;67146;51.236;-0.336;2023-04-23T08:01:35;3.65;;;0.40;;
77948;SDS011;67146;51.236;-0.336;2023-04-23T08:04:00;5.45;;;0.68;;
77948;SDS011;67146;51.236;-0.336;2023-04-23T08:06:27;4.43;;;0.50;;
77948;SDS011;67146;51.236;-0.336;2023-04-23T08:08:55;6.25;;;0.68;;
77948;SDS011;67146;51.236;-0.336;2023-04-23T08:11:21;6.35;;;1.33;;
77948;SDS011;67146;51.236;-0.336;2023-04-23T08:13:46;4.10;;;0.40;;
77948;SDS011;67146;51.236;-0.336;2023-04-23T08:16:12;5.97;;;0.50;;
77948;SDS011;67146;51.236;-0.336;2023-04-23T08:18:37;5.65;;;0.50;;
77948;SDS011;67146;51.236;-0.336;2023-04-23T08:21:02;7.97;;;0.73;;
77948;SDS011;67146;51.236;-0.336;2023-04-23T08:23:28;6.22;;;0.50;;
77948;SDS011;67146;51.236;-0.336;2023-04-23T08:25:53;5.80;;;0.80;;
77948;SDS011;67146;51.236;-0.336;2023-04-23T08:28:18;8.03;;;0.37;;
77948;SDS011;67146;51.236;-0.336;2023-04-23T08:30:44;4.53;;;0.60;;
77948;SDS011;67146;51.236;-0.336;2023-04-23T08:33:10;6.72;;;0.50;;
77948;SDS011;67146;51.236;-0.336;2023-04-23T08:35:36;5.03;;;1.05;;
77948;SDS011;67146;51.236;-0.336;2023-04-23T08:38:01;9.93;;;1.58;;
77948;SDS011;67146;51.236;-0.336;2023-04-23T08:40:28;6.23;;;0.60;;
77948;SDS011;67146;51.236;-0.336;2023-04-23T08:43:01;4.20;;;0.52;;
77948;SDS011;67146;51.236;-0.336;2023-04-23T08:45:29;5.45;;;0.50;;
77948;SDS011;67146;51.236;-0.336;2023-04-23T08:47:57;4.85;;;0.77;;
77948;SDS011;67146;51.236;-0.336;2023-04-23T08:50:23;6.22;;;0.65;;
77948;SDS011;67146;51.236;-0.336;2023-04-23T08:52:51;8.10;;;1.38;;
77948;SDS011;67146;51.236;-0.336;2023-04-23T08:55:17;5.32;;;0.93;;
77948;SDS011;67146;51.236;-0.336;2023-04-23T08:57:44;4.25;;;1.05;;
77948;SDS011;67146;51.236;-0.336;2023-04-23T09:00:11;5.45;;;0.82;;
77948;SDS011;67146;51.236;-0.336;2023-04-23T09:02:42;5.50;;;0.73;;
77948;SDS011;67146;51.236;-0.336;2023-04-23T09:05:09;4.82;;;0.85;;
77948;SDS011;67146;51.236;-0.336;2023-04-23T09:07:35;3.80;;;0.55;;
77948;SDS011;67146;51.236;-0.336;2023-04-23T09:10:01;4.80;;;0.50;;
77948;SDS011;67146;51.236;-0.336;2023-04-23T09:12:27;5.57;;;0.70;;
77948;SDS011;67146;51.236;-0.336;2023-04-23T09:14:52;6.18;;;0.80;;
77948;SDS011;67146;51.236;-0.336;2023-04-23T09:17:18;3.92;;;0.60;;
77948;SDS011;67146;51.236;-0.336;2023-04-23T09:19:44;4.03;;;0.55;;
77948;SDS011;67146;51.236;-0.336;2023-04-23T09:22:10;6.60;;;0.90;;
77948;SDS011;67146;51.236;-0.336;2023-04-23T09:24:37;6.70;;;0.75;;
77948;SDS011;67146;51.236;-0.336;2023-04-23T09:27:05;6.55;;;0.65;;
77948;SDS011;67146;51.236;-0.336;2023-04-23T09:29:31;6.10;;;0.70;;
77948;SDS011;67146;51.236;-0.336;2023-04-23T09:32:08;4.10;;;0.40;;
77948;SDS011;67146;51.236;-0.336;2023-04-23T09:34:37;4.68;;;1.20;;
77948;SDS011;67146;51.236;-0.336;2023-04-23T09:37:03;6.47;;;1.33;;
77948;SDS011;67146;51.236;-0.336;2023-04-23T09:39:34;5.18;;;1.08;;
77948;SDS011;67146;51.236;-0.336;2023-04-23T09:42:03;5.05;;;1.08;;
77948;SDS011;67146;51.236;-0.336;2023-04-23T09:44:32;4.93;;;0.90;;
77948;SDS011;67146;51.236;-0.336;2023-04-23T09:47:08;3.70;;;0.50;;
77948;SDS011;67146;51.236;-0.336;2023-04-23T09:49:49;6.07;;;0.80;;
77948;SDS011;67146;51.236;-0.336;2023-04-23T09:52:15;4.45;;;0.70;;
77948;SDS011;67146;51.236;-0.336;2023-04-23T09:54:41;4.68;;;0.82;;
77948;SDS011;67146;51.236;-0.336;2023-04-23T09:57:06;3.75;;;0.52;;
77948;SDS011;67146;51.236;-0.336;2023-04-23T09:59:33;5.68;;;0.80;;
77948;SDS011;67146;51.236;-0.336;2023-04-23T10:02:03;6.38;;;0.88;;
77948;SDS011;67146;51.236;-0.336;2023-04-23T10:04:29;6.90;;;0.70;;
77948;SDS011;67146;51.236;-0.336;2023-04-23T10:06:56;5.00;;;0.82;;
77948;SDS011;67146;51.236;-0.336;2023-04-23T10:09:23;6.63;;;1.10;;
77948;SDS011;67146;51.236;-0.336;2023-04-23T10:11:52;5.95;;;1.15;;
77948;SDS011;67146;51.236;-0.336;2023-04-23T10:14:20;4.47;;;0.60;;
77948;SDS011;67146;51.236;-0.336;2023-04-23T10:16:46;4.60;;;0.77;;
77948;SDS011;67146;51.236;-0.336;2023-04-23T10:19:14;4.30;;;0.68;;
77948;SDS011;67146;51.236;-0.336;2023-04-23T10:21:42;4.95;;;0.80;;
77948;SDS011;67146;51.236;-0.336;2023-04-23T10:24:08;4.72;;;0.60;;
77948;SDS011;67146;51.236;-0.336;2023-04-23T10:26:37;2.88;;;0.40;;
77948;SDS011;67146;51.236;-0.336;2023-04-23T10:29:03;4.03;;;0.40;;
77948;SDS011;67146;51.236;-0.336;2023-04-23T10:31:30;3.63;;;0.65;;
77948;SDS011;67146;51.236;-0.336;2023-04-23T10:33:56;6.78;;;0.50;;
77948;SDS011;67146;51.236;-0.336;2023-04-23T10:36:22;4.10;;;0.85;;
77948;SDS011;67146;51.236;-0.336;2023-04-23T10:38:49;4.45;;;0.55;;
77948;SDS011;67146;51.236;-0.336;2023-04-23T10:41:15;4.47;;;0.90;;
77948;SDS011;67146;51.236;-0.336;2023-04-23T10:43:42;2.95;;;0.43;;
77948;SDS011;67146;51.236;-0.336;2023-04-23T10:46:50;4.57;;;0.68;;
77948;SDS011;67146;51.236;-0.336;2023-04-23T10:51:35;3.17;;;0.60;;
77948;SDS011;67146;51.236;-0.336;2023-04-23T10:54:04;4.05;;;0.65;;
77948;SDS011;67146;51.236;-0.336;2023-04-23T10:56:30;4.25;;;0.50;;
77948;SDS011;67146;51.236;-0.336;2023-04-23T10:58:56;3.42;;;0.60;;
77948;SDS011;67146;51.236;-0.336;2023-04-23T11:01:25;3.17;;;0.70;;
77948;SDS011;67146;51.236;-0.336;2023-04-23T11:03:52;2.40;;;0.30;;
77948;SDS011;67146;51.236;-0.336;2023-04-23T11:06:19;3.38;;;0.50;;
77948;SDS011;67146;51.236;-0.336;2023-04-23T11:12:05;2.88;;;0.30;;
77948;SDS011;67146;51.236;-0.336;2023-04-23T11:14:36;2.42;;;0.45;;
77948;SDS011;67146;51.236;-0.336;2023-04-23T11:17:15;3.70;;;0.40;;
77948;SDS011;67146;51.236;-0.336;2023-04-23T11:19:41;1.73;;;0.20;;
77948;SDS011;67146;51.236;-0.336;2023-04-23T11:22:44;2.22;;;0.45;;
77948;SDS011;67146;51.236;-0.336;2023-04-23T11:25:14;2.80;;;0.50;;
77948;SDS011;67146;51.236;-0.336;2023-04-23T11:27:51;3.90;;;1.02;;
77948;SDS011;67146;51.236;-0.336;2023-04-23T11:30:18;2.45;;;0.30;;
77948;SDS011;67146;51.236;-0.336;2023-04-23T11:32:45;2.83;;;0.30;;
77948;SDS011;67146;51.236;-0.336;2023-04-23T11:35:13;2.97;;;0.38;;
77948;SDS011;67146;51.236;-0.336;2023-04-23T11:37:39;2.03;;;0.20;;
77948;SDS011;67146;51.236;-0.336;2023-04-23T11:40:09;3.22;;;0.50;;
77948;SDS011;67146;51.236;-0.336;2023-04-23T11:42:40;2.30;;;0.20;;
77948;SDS011;67146;51.236;-0.336;2023-04-23T11:45:13;2.08;;;0.50;;
77948;SDS011;67146;51.236;-0.336;2023-04-23T11:47:39;2.10;;;0.30;;
77948;SDS011;67146;51.236;-0.336;2023-04-23T11:50:05;2.13;;;0.30;;
77948;SDS011;67146;51.236;-0.336;2023-04-23T11:52:31;3.00;;;0.45;;
77948;SDS011;67146;51.236;-0.336;2023-04-23T11:55:01;2.63;;;0.30;;
77948;SDS011;67146;51.236;-0.336;2023-04-23T11:57:27;2.05;;;0.30;;
77948;SDS011;67146;51.236;-0.336;2023-04-23T11:59:52;1.83;;;0.30;;
77948;SDS011;67146;51.236;-0.336;2023-04-23T12:02:17;4.05;;;0.50;;
77948;SDS011;67146;51.236;-0.336;2023-04-23T12:04:43;2.58;;;0.20;;
77948;SDS011;67146;51.236;-0.336;2023-04-23T12:07:08;3.77;;;0.57;;
77948;SDS011;67146;51.236;-0.336;2023-04-23T12:09:34;2.45;;;0.30;;
77948;SDS011;67146;51.236;-0.336;2023-04-23T12:12:00;2.85;;;0.50;;
77948;SDS011;67146;51.236;-0.336;2023-04-23T12:14:27;2.15;;;0.30;;
77948;SDS011;67146;51.236;-0.336;2023-04-23T12:16:54;2.55;;;0.35;;
77948;SDS011;67146;51.236;-0.336;2023-04-23T12:19:20;3.10;;;0.75;;
77948;SDS011;67146;51.236;-0.336;2023-04-23T12:21:59;2.72;;;0.50;;
77948;SDS011;67146;51.236;-0.336;2023-04-23T12:24:27;3.13;;;0.70;;
77948;SDS011;67146;51.236;-0.336;2023-04-23T12:26:58;3.28;;;0.60;;
77948;SDS011;67146;51.236;-0.336;2023-04-23T12:29:25;2.30;;;0.50;;
77948;SDS011;67146;51.236;-0.336;2023-04-23T12:31:51;2.25;;;0.30;;
77948;SDS011;67146;51.236;-0.336;2023-04-23T12:34:18;2.25;;;0.20;;
77948;SDS011;67146;51.236;-0.336;2023-04-23T12:36:51;1.88;;;0.22;;
77948;SDS011;67146;51.236;-0.336;2023-04-23T12:41:55;3.10;;;0.20;;
77948;SDS011;67146;51.236;-0.336;2023-04-23T12:44:21;2.25;;;0.28;;
77948;SDS011;67146;51.236;-0.336;2023-04-23T12:46:48;1.65;;;0.22;;
77948;SDS011;67146;51.236;-0.336;2023-04-23T12:49:15;1.63;;;0.20;;
77948;SDS011;67146;51.236;-0.336;2023-04-23T12:51:40;2.30;;;0.40;;
77948;SDS011;67146;51.236;-0.336;2023-04-23T12:54:09;2.33;;;0.30;;
77948;SDS011;67146;51.236;-0.336;2023-04-23T12:56:35;1.63;;;0.20;;
77948;SDS011;67146;51.236;-0.336;2023-04-23T12:59:01;3.35;;;0.40;;
77948;SDS011;67146;51.236;-0.336;2023-04-23T13:01:29;3.67;;;0.30;;
77948;SDS011;67146;51.236;-0.336;2023-04-23T13:03:54;2.55;;;0.30;;
77948;SDS011;67146;51.236;-0.336;2023-04-23T13:06:20;3.22;;;0.60;;
77948;SDS011;67146;51.236;-0.336;2023-04-23T13:08:45;2.20;;;0.50;;
77948;SDS011;67146;51.236;-0.336;2023-04-23T13:11:10;1.67;;;0.40;;
77948;SDS011;67146;51.236;-0.336;2023-04-23T13:13:36;3.78;;;0.38;;
77948;SDS011;67146;51.236;-0.336;2023-04-23T13:16:01;2.83;;;0.67;;
77948;SDS011;67146;51.236;-0.336;2023-04-23T13:18:27;2.93;;;0.70;;
77948;SDS011;67146;51.236;-0.336;2023-04-23T13:20:52;2.00;;;0.30;;
77948;SDS011;67146;51.236;-0.336;2023-04-23T13:23:17;2.20;;;0.40;;
77948;SDS011;67146;51.236;-0.336;2023-04-23T13:25:43;3.20;;;0.60;;
77948;SDS011;67146;51.236;-0.336;2023-04-23T13:28:08;3.63;;;0.40;;
77948;SDS011;67146;51.236;-0.336;2023-04-23T13:30:33;4.00;;;0.60;;
77948;SDS011;67146;51.236;-0.336;2023-04-23T13:32:59;2.70;;;0.35;;
77948;SDS011;67146;51.236;-0.336;2023-04-23T13:35:24;3.47;;;0.80;;
77948;SDS011;67146;51.236;-0.336;2023-04-23T13:37:49;3.50;;;0.80;;
77948;SDS011;67146;51.236;-0.336;2023-04-23T13:40:15;3.50;;;0.53;;
77948;SDS011;67146;51.236;-0.336;2023-04-23T13:42:40;4.10;;;1.73;;
77948;SDS011;67146;51.236;-0.336;2023-04-23T13:45:06;3.10;;;0.43;;
77948;SDS011;67146;51.236;-0.336;2023-04-23T13:47:32;3.13;;;0.68;;
77948;SDS011;67146;51.236;-0.336;2023-04-23T13:49:59;3.30;;;0.40;;
77948;SDS011;67146;51.236;-0.336;2023-04-23T13:54:52;3.42;;;0.55;;
77948;SDS011;67146;51.236;-0.336;2023-04-23T13:57:21;3.95;;;0.60;;
77948;SDS011;67146;51.236;-0.336;2023-04-23T13:59:50;3.30;;;0.60;;
77948;SDS011;67146;51.236;-0.336;2023-04-23T14:02:15;4.75;;;1.13;;
77948;SDS011;67146;51.236;-0.336;2023-04-23T14:04:41;3.57;;;0.60;;
77948;SDS011;67146;51.236;-0.336;2023-04-23T14:07:06;5.00;;;0.98;;
77948;SDS011;67146;51.236;-0.336;2023-04-23T14:09:31;4.10;;;0.90;;
77948;SDS011;67146;51.236;-0.336;2023-04-23T14:11:57;3.40;;;0.80;;
77948;SDS011;67146;51.236;-0.336;2023-04-23T14:14:22;5.05;;;1.10;;
77948;SDS011;67146;51.236;-0.336;2023-04-23T14:16:47;4.40;;;1.30;;
77948;SDS011;67146;51.236;-0.336;2023-04-23T14:19:13;4.30;;;1.00;;
77948;SDS011;67146;51.236;-0.336;2023-04-23T14:21:38;4.70;;;1.23;;
77948;SDS011;67146;51.236;-0.336;2023-04-23T14:24:08;4.30;;;1.23;;
77948;SDS011;67146;51.236;-0.336;2023-04-23T14:26:40;5.90;;;1.63;;
77948;SDS011;67146;51.236;-0.336;2023-04-23T14:29:09;3.92;;;1.17;;
77948;SDS011;67146;51.236;-0.336;2023-04-23T14:31:41;4.25;;;1.10;;
77948;SDS011;67146;51.236;-0.336;2023-04-23T14:34:07;4.87;;;1.00;;
77948;SDS011;67146;51.236;-0.336;2023-04-23T14:36:32;4.73;;;1.27;;
77948;SDS011;67146;51.236;-0.336;2023-04-23T14:38:57;5.68;;;1.52;;
77948;SDS011;67146;51.236;-0.336;2023-04-23T14:41:28;4.93;;;1.63;;